Time;durP1;ratioP1;P1;durP2;ratioP2;P2;SDS_P1;SDS_P2;PMS_P1;PMS_P2;Temp;Humidity;BMP_temperature;BMP_pressure;BME280_temperature;BME280_humidity;BME280_pressure;Samples;Min_cycle;Max_cycle;Signal;HPM_P1;HPM_P2
2023/06/28 00:00:29;;;;;;;6.25;5.57;;;;;;;20.08;98.14;65090.69;5033082;28;20209;-58
2023/06/28 00:02:58;;;;;;;6.18;5.25;;;;;;;20.24;98.29;65107.28;5050869;28;20559;-55
2023/06/28 00:05:23;;;;;;;6.40;5.68;;;;;;;20.28;98.73;65116.81;5050727;28;20300;-55
2023/06/28 00:07:48;;;;;;;5.60;5.10;;;;;;;20.29;98.91;65115.34;5050783;28;20200;-56
2023/06/28 00:10:14;;;;;;;8.32;5.47;;;;;;;20.39;99.11;65126.41;5050386;28;20209;-55
2023/06/28 00:12:40;;;;;;;6.90;5.47;;;;;;;20.43;98.12;65133.94;5050599;28;20651;-56
2023/06/28 00:15:06;;;;;;;6.85;5.78;;;;;;;20.26;100.00;65112.59;5050450;28;20202;-55
2023/06/28 00:17:31;;;;;;;8.57;5.38;;;;;;;20.12;100.00;65097.09;5031977;28;20220;-57
2023/06/28 00:20:06;;;;;;;7.15;5.07;;;;;;;20.14;100.00;65099.31;5050111;28;20209;-57
2023/06/28 00:22:32;;;;;;;7.43;5.47;;;;;;;20.09;100.00;65094.34;5050853;28;20196;-58
2023/06/28 00:25:01;;;;;;;7.65;5.45;;;;;;;20.08;100.00;65092.69;5050461;28;20205;-58
2023/06/28 00:27:27;;;;;;;11.40;6.03;;;;;;;20.06;100.00;65090.47;5050458;28;20670;-58
2023/06/28 00:29:53;;;;;;;7.72;5.22;;;;;;;20.02;100.00;65086.59;5050228;28;20221;-55
2023/06/28 00:32:19;;;;;;;9.23;6.30;;;;;;;20.03;100.00;65090.28;5050530;28;20197;-57
2023/06/28 00:34:45;;;;;;;6.55;5.82;;;;;;;20.02;100.00;65088.63;5050490;28;20300;-58
2023/06/28 00:37:10;;;;;;;7.70;6.10;;;;;;;20.02;100.00;65084.06;5050505;28;20611;-59
2023/06/28 00:39:36;;;;;;;6.57;5.72;;;;;;;19.97;100.00;65083.09;5050122;28;20205;-56
2023/06/28 00:42:02;;;;;;;7.28;5.60;;;;;;;19.95;100.00;65076.31;5050143;28;20713;-57
2023/06/28 00:44:27;;;;;;;8.00;6.00;;;;;;;19.89;100.00;65072.25;5050320;28;20740;-57
2023/06/28 00:46:54;;;;;;;8.52;6.45;;;;;;;19.77;100.00;65055.91;5050247;28;20201;-56
2023/06/28 00:49:21;;;;;;;7.25;5.68;;;;;;;19.82;100.00;65067.06;5049860;28;20786;-57
2023/06/28 00:51:46;;;;;;;7.75;6.55;;;;;;;19.81;100.00;65065.97;5050260;28;20208;-57
2023/06/28 00:54:12;;;;;;;9.32;6.80;;;;;;;19.79;100.00;65061.22;5049831;28;20210;-55
2023/06/28 00:56:38;;;;;;;7.90;6.38;;;;;;;19.85;100.00;65067.84;5049990;28;20186;-58
2023/06/28 00:59:05;;;;;;;9.02;7.07;;;;;;;19.94;100.00;65079.78;5050366;28;20611;-54
2023/06/28 01:01:31;;;;;;;10.50;7.32;;;;;;;19.94;100.00;65079.78;5050161;28;20204;-56
2023/06/28 01:03:56;;;;;;;17.13;12.70;;;;;;;19.92;100.00;65073.00;5050172;28;20217;-58
2023/06/28 01:06:24;;;;;;;9.40;7.03;;;;;;;19.71;100.00;65052.38;5050107;28;20201;-54
2023/06/28 01:08:51;;;;;;;11.55;6.50;;;;;;;19.57;100.00;65036.38;5049980;28;20222;-58
2023/06/28 01:11:18;;;;;;;13.70;7.93;;;;;;;19.47;100.00;65023.31;5049957;28;20201;-57
2023/06/28 01:13:45;;;;;;;13.93;7.30;;;;;;;19.32;100.00;65006.19;5049843;28;20213;-56
2023/06/28 01:16:11;;;;;;;11.93;7.93;;;;;;;19.20;100.00;64996.59;5049834;28;20629;-58
2023/06/28 01:18:37;;;;;;;13.45;7.25;;;;;;;19.20;100.00;64996.03;5050195;28;20205;-57
2023/06/28 01:21:07;;;;;;;11.40;7.45;;;;;;;19.15;100.00;64993.06;5050076;28;20238;-59
2023/06/28 01:23:33;;;;;;;10.63;7.20;;;;;;;19.24;100.00;65001.00;5049964;28;20687;-55
2023/06/28 01:26:03;;;;;;;10.82;8.18;;;;;;;19.36;100.00;65013.72;5049705;28;20178;-58
2023/06/28 01:28:30;;;;;;;9.82;7.38;;;;;;;19.27;100.00;65004.31;5049559;28;20228;-59
2023/06/28 01:30:57;;;;;;;10.00;8.32;;;;;;;19.20;100.00;64996.03;5052664;28;20201;-55
2023/06/28 01:33:23;;;;;;;14.90;8.60;;;;;;;19.21;100.00;64995.13;5053023;28;20293;-55
2023/06/28 01:35:50;;;;;;;9.45;7.95;;;;;;;19.14;100.00;64989.97;5053000;28;20324;-56
2023/06/28 01:38:16;;;;;;;18.85;7.60;;;;;;;19.21;100.00;65000.25;5052954;28;20217;-60
2023/06/28 01:40:43;;;;;;;9.00;7.85;;;;;;;19.27;100.00;65006.31;5052932;28;20201;-57
2023/06/28 01:43:08;;;;;;;11.13;7.80;;;;;;;19.15;100.00;64990.50;5052779;28;20209;-57
2023/06/28 01:45:35;;;;;;;10.43;7.35;;;;;;;19.17;100.00;64995.84;5052905;28;20201;-55
2023/06/28 01:48:01;;;;;;;10.32;7.78;;;;;;;19.06;100.00;64978.03;5053018;28;20687;-54
2023/06/28 01:50:27;;;;;;;11.63;7.75;;;;;;;19.08;100.00;64982.81;5097534;22;20231;-59
2023/06/28 01:52:53;;;;;;;9.02;7.68;;;;;;;19.08;100.00;64985.91;5093003;28;20200;-57
2023/06/28 01:55:18;;;;;;;10.60;7.18;;;;;;;19.03;100.00;64977.81;5093021;28;20207;-54
2023/06/28 01:57:46;;;;;;;11.25;7.60;;;;;;;18.93;100.00;64966.25;5093084;28;20219;-59
2023/06/28 02:00:15;;;;;;;8.35;6.60;;;;;;;18.90;100.00;64960.94;5093239;28;20204;-55
2023/06/28 02:02:40;;;;;;;10.15;8.48;;;;;;;18.90;100.00;64962.94;5093109;28;20219;-54
2023/06/28 02:05:06;;;;;;;10.15;7.55;;;;;;;19.01;100.00;64973.06;5093114;28;20243;-60
2023/06/28 02:07:31;;;;;;;8.43;7.53;;;;;;;19.05;100.00;64980.03;5092826;28;20218;-58
2023/06/28 02:09:57;;;;;;;10.55;7.63;;;;;;;19.00;100.00;64971.97;5092945;28;20704;-58
2023/06/28 02:12:22;;;;;;;13.35;7.47;;;;;;;18.91;100.00;64962.03;5092734;28;20666;-59
2023/06/28 02:14:51;;;;;;;9.43;7.90;;;;;;;18.85;100.00;64954.84;5092358;28;20209;-55
2023/06/28 02:17:20;;;;;;;13.15;8.18;;;;;;;18.79;100.00;64953.34;5092266;28;20588;-59
2023/06/28 02:19:49;;;;;;;10.45;8.48;;;;;;;18.84;100.00;64959.44;5092325;28;20289;-56
2023/06/28 02:22:19;;;;;;;8.88;7.97;;;;;;;18.76;100.00;64950.03;5092665;28;20741;-55
2023/06/28 02:24:45;;;;;;;11.10;7.95;;;;;;;18.70;100.00;64943.97;5092716;28;20215;-55
2023/06/28 02:27:10;;;;;;;9.40;8.00;;;;;;;18.60;100.00;64927.28;5092310;28;20206;-55
2023/06/28 02:29:36;;;;;;;8.70;7.80;;;;;;;18.49;100.00;64920.25;5092815;28;20327;-59
2023/06/28 02:32:03;;;;;;;12.68;8.15;;;;;;;18.35;100.00;64905.34;5092684;28;20200;-54
2023/06/28 02:34:29;;;;;;;12.82;9.63;;;;;;;18.48;100.00;64914.06;5074261;28;20249;-55
2023/06/28 02:36:56;;;;;;;12.25;8.82;;;;;;;18.45;100.00;64911.28;5092400;28;20223;-56
2023/06/28 02:39:22;;;;;;;12.25;10.75;;;;;;;18.36;100.00;64904.44;5092290;28;20241;-58
2023/06/28 02:41:48;;;;;;;12.60;10.25;;;;;;;18.28;100.00;64895.09;5091285;28;20196;-54
2023/06/28 02:44:14;;;;;;;12.85;10.82;;;;;;;18.32;100.00;64899.50;5092795;28;20204;-58
2023/06/28 02:46:40;;;;;;;13.23;10.30;;;;;;;18.25;100.00;64892.31;5092100;28;20192;-55
2023/06/28 02:49:06;;;;;;;12.02;10.57;;;;;;;18.20;100.00;64886.25;5092670;28;20219;-55
2023/06/28 02:51:32;;;;;;;14.93;11.48;;;;;;;18.23;100.00;64889.56;5092218;28;20223;-55
2023/06/28 02:53:58;;;;;;;11.48;10.30;;;;;;;18.24;100.00;64893.75;5091844;28;20305;-56
2023/06/28 02:56:23;;;;;;;14.23;11.38;;;;;;;18.23;100.00;64890.13;5092256;28;20215;-56
2023/06/28 02:58:49;;;;;;;12.98;11.35;;;;;;;18.25;100.00;64894.88;5092062;28;20208;-57
2023/06/28 03:01:15;;;;;;;13.05;11.75;;;;;;;18.24;100.00;64890.66;5092182;28;20204;-56
2023/06/28 03:03:41;;;;;;;15.30;12.02;;;;;;;18.22;100.00;64889.00;5091941;28;20212;-57
2023/06/28 03:06:06;;;;;;;13.38;10.77;;;;;;;18.23;100.00;64890.13;5073814;28;20257;-58
2023/06/28 03:08:31;;;;;;;15.98;11.82;;;;;;;18.22;100.00;64891.56;5092076;28;20204;-59
2023/06/28 03:10:57;;;;;;;14.02;11.75;;;;;;;18.24;100.00;64890.66;5091948;28;20223;-59
2023/06/28 03:13:23;;;;;;;13.48;11.50;;;;;;;18.26;100.00;64890.84;5092030;28;20208;-58
2023/06/28 03:15:48;;;;;;;14.80;11.57;;;;;;;18.20;100.00;64889.34;5091726;28;20671;-58
2023/06/28 03:18:13;;;;;;;12.90;10.95;;;;;;;18.34;100.00;64901.69;5091865;28;20295;-56
2023/06/28 03:20:39;;;;;;;12.18;10.90;;;;;;;18.24;100.00;64891.19;5091798;28;20192;-58
2023/06/28 03:23:04;;;;;;;16.98;12.40;;;;;;;18.21;100.00;64885.34;5091727;28;20667;-59
2023/06/28 03:25:30;;;;;;;13.10;11.35;;;;;;;18.36;100.00;64901.34;5091810;28;20219;-55
2023/06/28 03:27:56;;;;;;;12.40;11.15;;;;;;;18.26;100.00;64893.41;5091708;28;20188;-58
2023/06/28 03:30:21;;;;;;;15.68;11.95;;;;;;;18.28;100.00;64895.63;5091595;28;20689;-57
2023/06/28 03:32:47;;;;;;;14.05;12.65;;;;;;;18.42;100.00;64913.06;5091605;28;20651;-57
2023/06/28 03:35:12;;;;;;;14.52;11.90;;;;;;;18.35;100.00;64902.78;5091764;28;20203;-56
2023/06/28 03:37:38;;;;;;;14.27;12.35;;;;;;;18.43;100.00;64911.63;5091424;28;20689;-55
2023/06/28 03:40:04;;;;;;;13.90;12.38;;;;;;;18.40;100.00;64910.88;5091450;28;20216;-59
2023/06/28 03:42:30;;;;;;;14.02;11.63;;;;;;;18.40;100.00;64908.84;5091383;28;20231;-58
2023/06/28 03:44:55;;;;;;;15.43;11.88;;;;;;;18.46;100.00;64914.41;5091409;28;20724;-58
2023/06/28 03:47:21;;;;;;;14.35;12.55;;;;;;;18.49;100.00;64917.69;5073315;28;20221;-58
2023/06/28 03:49:46;;;;;;;13.13;11.82;;;;;;;18.64;100.00;64936.81;5091225;28;20220;-56
2023/06/28 03:52:12;;;;;;;14.05;12.65;;;;;;;18.62;100.00;64934.59;5091013;28;20208;-55
2023/06/28 03:54:37;;;;;;;15.88;12.70;;;;;;;18.68;100.00;64938.66;5090967;28;20215;-56
2023/06/28 03:57:04;;;;;;;14.05;12.38;;;;;;;18.81;100.00;64953.00;5091527;28;20665;-55
2023/06/28 03:59:30;;;;;;;18.00;14.18;;;;;;;18.95;100.00;64971.00;5091299;28;20645;-54
2023/06/28 04:01:55;;;;;;;15.50;12.85;;;;;;;18.84;100.00;64959.44;5091375;28;20279;-55
2023/06/28 04:04:21;;;;;;;17.42;13.48;;;;;;;18.85;100.00;64963.06;5091241;28;20204;-54
2023/06/28 04:06:46;;;;;;;17.75;13.82;;;;;;;18.91;100.00;64961.47;5091144;28;20200;-56
2023/06/28 04:09:11;;;;;;;15.73;14.05;;;;;;;18.93;100.00;64966.78;5090900;28;20223;-55
2023/06/28 04:11:37;;;;;;;15.50;13.82;;;;;;;18.95;100.00;64968.44;5099047;22;20220;-55
2023/06/28 04:14:02;;;;;;;17.55;14.00;;;;;;;18.95;100.00;64968.44;5091220;28;20583;-56
2023/06/28 04:16:28;;;;;;;19.20;14.55;;;;;;;18.98;100.00;64972.31;5091027;28;20192;-55
2023/06/28 04:18:53;;;;;;;18.00;14.02;;;;;;;18.99;100.00;64972.84;5072274;28;20203;-58
2023/06/28 04:21:19;;;;;;;14.30;12.82;;;;;;;19.10;100.00;64985.00;5090844;28;20259;-53
2023/06/28 04:23:44;;;;;;;17.83;13.63;;;;;;;19.26;100.00;65002.66;5090686;28;20207;-59
2023/06/28 04:26:10;;;;;;;15.75;13.77;;;;;;;19.50;100.00;65029.19;5072543;28;20231;-58
2023/06/28 04:28:35;;;;;;;16.13;13.63;;;;;;;19.52;100.00;65030.84;5090466;28;20204;-58
2023/06/28 04:31:02;;;;;;;15.07;13.48;;;;;;;19.39;100.00;65017.06;5089555;28;20223;-55
2023/06/28 04:33:29;;;;;;;14.75;13.25;;;;;;;19.51;100.00;65027.75;5090775;28;20273;-59
2023/06/28 04:35:56;;;;;;;15.95;13.90;;;;;;;19.37;100.00;65017.41;5090703;28;20685;-55
2023/06/28 04:38:23;;;;;;;16.77;14.32;;;;;;;19.38;100.00;65012.81;5072762;28;20237;-58
2023/06/28 04:40:49;;;;;;;16.48;14.10;;;;;;;19.44;100.00;65016.88;5090449;28;20235;-58
2023/06/28 04:43:15;;;;;;;16.70;14.95;;;;;;;19.41;100.00;65018.69;5090606;28;20230;-59
2023/06/28 04:45:41;;;;;;;17.02;15.10;;;;;;;19.38;100.00;65013.38;5091161;28;20228;-59
2023/06/28 04:48:07;;;;;;;17.63;14.93;;;;;;;19.71;100.00;65049.28;5090403;28;20278;-59
2023/06/28 04:50:33;;;;;;;19.58;13.68;;;;;;;19.62;100.00;65044.44;5090752;28;20303;-58
2023/06/28 04:53:00;;;;;;;17.17;14.25;;;;;;;19.36;100.00;65010.63;5090507;28;20189;-55
2023/06/28 04:55:30;;;;;;;15.82;13.85;;;;;;;19.66;100.00;65046.84;5072416;28;20204;-54
2023/06/28 04:57:55;;;;;;;16.40;14.70;;;;;;;19.62;100.00;65039.31;5090711;28;20269;-57
2023/06/28 05:00:20;;;;;;;19.05;14.13;;;;;;;20.14;100.00;65098.78;5090551;28;20212;-57
2023/06/28 05:02:46;;;;;;;14.85;12.98;;;;;;;20.41;100.00;65126.06;5090805;28;20280;-56
2023/06/28 05:05:14;;;;;;;16.77;13.65;;;;;;;20.43;100.00;65128.81;5092731;28;20212;-59
2023/06/28 05:07:39;;;;;;;15.35;13.65;;;;;;;20.33;100.00;65120.34;5093910;28;20684;-57
2023/06/28 05:10:05;;;;;;;15.75;13.27;;;;;;;20.59;100.00;65146.50;5093784;28;20238;-55
2023/06/28 05:12:30;;;;;;;15.10;12.73;;;;;;;20.73;100.00;65161.41;5093884;28;20736;-59
2023/06/28 05:14:56;;;;;;;14.90;13.27;;;;;;;20.43;100.00;65131.38;5094090;28;20297;-58
2023/06/28 05:17:21;;;;;;;19.38;13.75;;;;;;;20.01;100.00;65084.97;5094415;28;20192;-58
2023/06/28 05:19:47;;;;;;;14.50;13.00;;;;;;;19.93;100.00;65074.13;5093647;28;20231;-56
2023/06/28 05:22:12;;;;;;;16.83;14.95;;;;;;;19.72;100.00;65052.91;5093908;28;20202;-54
2023/06/28 05:24:38;;;;;;;19.27;13.57;;;;;;;19.69;100.00;65050.19;5093460;28;20287;-58
2023/06/28 05:27:03;;;;;;;20.73;14.75;;;;;;;19.80;100.00;65062.31;5093551;28;20196;-57
2023/06/28 05:29:29;;;;;;;16.65;14.75;;;;;;;19.70;100.00;65050.72;5093181;28;20216;-57
2023/06/28 05:31:54;;;;;;;17.85;14.73;;;;;;;19.94;100.00;65077.78;5093409;28;20199;-58
2023/06/28 05:34:19;;;;;;;16.35;14.70;;;;;;;19.93;100.00;65073.56;5091768;28;20239;-59
2023/06/28 05:36:45;;;;;;;18.58;14.50;;;;;;;19.78;100.00;65060.09;5092866;28;20200;-60
2023/06/28 05:39:10;;;;;;;16.88;15.07;;;;;;;19.77;100.00;65055.91;5093479;28;20290;-57
2023/06/28 05:41:36;;;;;;;17.70;15.65;;;;;;;19.86;100.00;65068.94;5093378;28;20196;-58
2023/06/28 05:44:01;;;;;;;17.63;14.95;;;;;;;19.90;100.00;65073.34;5093263;28;20758;-57
2023/06/28 05:46:27;;;;;;;21.42;16.50;;;;;;;20.10;100.00;65092.34;5093604;28;20256;-58
2023/06/28 05:48:53;;;;;;;16.73;14.85;;;;;;;20.24;100.00;65107.81;5093210;28;20232;-56
2023/06/28 05:51:18;;;;;;;20.42;15.65;;;;;;;20.29;100.00;65115.91;5093374;28;20204;-55
2023/06/28 05:53:44;;;;;;;18.60;15.43;;;;;;;20.51;100.00;65139.66;5093137;28;20200;-58
2023/06/28 05:56:09;;;;;;;21.42;15.85;;;;;;;20.43;100.00;65130.81;5074278;28;20207;-60
2023/06/28 05:58:35;;;;;;;17.48;15.15;;;;;;;20.31;100.00;65115.00;5093009;28;20216;-59
2023/06/28 06:01:01;;;;;;;18.20;14.95;;;;;;;20.46;100.00;65134.16;5093270;28;20525;-59
2023/06/28 06:03:26;;;;;;;17.20;15.40;;;;;;;20.36;100.00;65120.53;5074829;28;20205;-58
2023/06/28 06:05:53;;;;;;;17.67;15.60;;;;;;;20.51;100.00;65139.66;5093222;28;20196;-57
2023/06/28 06:08:19;;;;;;;19.40;15.98;;;;;;;20.97;100.00;65189.97;5093120;28;20585;-56
2023/06/28 06:10:44;;;;;;;18.20;15.25;;;;;;;21.02;100.00;65196.06;5092850;28;20208;-56
2023/06/28 06:13:10;;;;;;;18.58;16.05;;;;;;;21.14;100.00;65206.78;5092758;28;20200;-54
2023/06/28 06:15:35;;;;;;;18.95;16.20;;;;;;;21.05;100.00;65199.38;5093203;28;20281;-56
2023/06/28 06:18:01;;;;;;;19.90;17.65;;;;;;;21.00;100.00;65196.41;5092705;28;20211;-55
2023/06/28 06:20:26;;;;;;;22.15;16.92;;;;;;;21.00;100.00;65191.28;5092904;28;20204;-57
2023/06/28 06:22:59;;;;;;;23.98;17.33;;;;;;;21.13;100.00;65210.78;5092828;28;20618;-55
2023/06/28 06:25:24;;;;;;;19.25;16.15;;;;;;;21.13;100.00;65205.66;5092964;28;20662;-55
2023/06/28 06:27:49;;;;;;;23.30;17.13;;;;;;;21.23;100.00;65219.28;5092794;28;20286;-58
2023/06/28 06:30:15;;;;;;;21.88;17.45;;;;;;;21.09;100.00;65200.69;5092501;28;20687;-55
2023/06/28 06:32:40;;;;;;;20.02;16.95;;;;;;;21.19;100.00;65212.28;5092619;28;20588;-58
2023/06/28 06:35:06;;;;;;;19.20;17.20;;;;;;;21.47;100.00;65248.38;5092403;28;20269;-55
2023/06/28 06:37:32;;;;;;;22.20;17.95;;;;;;;21.54;100.00;65253.56;5092837;28;20237;-59
2023/06/28 06:39:58;;;;;;;22.38;16.92;;;;;;;21.55;100.00;65251.56;5092679;28;20215;-58
2023/06/28 06:42:23;;;;;;;23.10;18.13;;;;;;;21.28;100.00;65222.25;5092544;28;20215;-56
2023/06/28 06:44:49;;;;;;;18.35;16.45;;;;;;;21.72;100.00;65273.50;5092339;28;20637;-57
2023/06/28 06:47:14;;;;;;;18.50;16.33;;;;;;;21.65;100.00;65263.16;5092177;28;20291;-57
2023/06/28 06:49:39;;;;;;;17.00;14.82;;;;;;;21.77;100.00;65276.44;5091909;28;20216;-56
2023/06/28 06:52:05;;;;;;;17.48;15.70;;;;;;;21.58;99.11;65257.44;5092365;28;20219;-56
2023/06/28 06:54:30;;;;;;;19.60;15.23;;;;;;;21.47;100.00;65243.25;5092339;28;20221;-56
2023/06/28 06:57:06;;;;;;;18.55;15.65;;;;;;;21.44;100.00;65236.81;5092202;28;20624;-55
2023/06/28 06:59:32;;;;;;;23.55;17.35;;;;;;;21.66;100.00;65266.84;5092428;28;20225;-56
2023/06/28 07:01:57;;;;;;;21.65;15.90;;;;;;;22.01;100.00;65299.91;5092193;28;20199;-55
2023/06/28 07:04:23;;;;;;;23.67;15.52;;;;;;;21.84;97.73;65283.09;5092082;28;20292;-56
2023/06/28 07:06:49;;;;;;;20.70;16.63;;;;;;;21.62;99.08;65261.88;5092123;28;20211;-54
2023/06/28 07:09:15;;;;;;;19.02;15.65;;;;;;;21.32;99.89;65226.69;5091823;28;20668;-58
2023/06/28 07:11:41;;;;;;;16.52;14.77;;;;;;;21.37;98.99;65234.75;5092057;28;20195;-56
2023/06/28 07:14:07;;;;;;;16.77;15.00;;;;;;;21.40;99.00;65235.53;5099060;22;20247;-55
2023/06/28 07:16:32;;;;;;;20.70;14.50;;;;;;;21.25;98.92;65218.94;5091726;28;20223;-58
2023/06/28 07:18:58;;;;;;;16.08;14.38;;;;;;;21.29;99.05;65225.38;5091747;28;20642;-55
2023/06/28 07:21:23;;;;;;;15.13;13.52;;;;;;;21.23;98.96;65219.28;5073770;28;20200;-57
2023/06/28 07:23:49;;;;;;;17.15;15.27;;;;;;;21.06;99.15;65197.94;5091982;28;20212;-54
2023/06/28 07:26:15;;;;;;;18.77;13.90;;;;;;;21.23;99.50;65216.72;5091645;28;20231;-57
2023/06/28 07:28:41;;;;;;;17.33;14.27;;;;;;;21.54;98.68;65251.00;5091151;28;20243;-55
2023/06/28 07:31:06;;;;;;;15.48;13.52;;;;;;;21.76;97.71;65274.78;5091538;28;20672;-55
2023/06/28 07:33:32;;;;;;;15.18;13.57;;;;;;;21.77;98.53;65275.34;5091604;28;20214;-55
2023/06/28 07:35:58;;;;;;;20.40;14.35;;;;;;;21.66;97.06;65261.72;5091341;28;20207;-55
2023/06/28 07:38:23;;;;;;;16.25;13.73;;;;;;;21.58;96.83;65255.44;5091355;28;20674;-58
2023/06/28 07:40:50;;;;;;;20.17;14.70;;;;;;;21.74;100.00;65273.13;5091577;28;20244;-58
2023/06/28 07:43:16;;;;;;;19.20;14.23;;;;;;;21.79;98.14;65278.13;5091268;28;20302;-55
2023/06/28 07:45:42;;;;;;;20.15;13.25;;;;;;;21.51;99.30;65250.25;5073429;28;20571;-55
2023/06/28 07:48:08;;;;;;;19.08;13.75;;;;;;;21.46;98.56;65244.72;5091471;28;20248;-55
2023/06/28 07:50:33;;;;;;;19.73;13.80;;;;;;;21.59;98.17;65256.53;5091256;28;20220;-55
2023/06/28 07:52:59;;;;;;;18.60;14.40;;;;;;;21.62;95.97;65262.44;5091046;28;20196;-56
2023/06/28 07:55:25;;;;;;;14.25;12.77;;;;;;;21.67;94.74;65267.94;5072883;28;20682;-55
2023/06/28 07:57:50;;;;;;;17.90;12.35;;;;;;;21.89;94.36;65289.19;5091069;28;20574;-55
2023/06/28 08:00:16;;;;;;;15.50;12.38;;;;;;;21.93;92.36;65293.06;5090998;28;20211;-56
2023/06/28 08:02:42;;;;;;;14.82;12.68;;;;;;;22.07;92.63;65308.56;5091293;28;20258;-57
2023/06/28 08:05:08;;;;;;;16.05;11.75;;;;;;;22.41;92.13;65348.75;5090881;28;20225;-57
2023/06/28 08:07:35;;;;;;;13.90;11.82;;;;;;;22.11;91.29;65313.00;5091379;28;20219;-57
2023/06/28 08:10:00;;;;;;;14.30;11.50;;;;;;;22.36;92.92;65340.66;5072976;28;20607;-55
2023/06/28 08:12:26;;;;;;;12.20;10.90;;;;;;;22.50;94.09;65356.16;5091125;28;20606;-55
2023/06/28 08:14:51;;;;;;;14.60;11.07;;;;;;;22.92;88.26;65402.13;5091210;28;20234;-59
2023/06/28 08:17:17;;;;;;;12.43;10.57;;;;;;;22.89;87.97;65401.38;5091051;28;20219;-58
2023/06/28 08:19:42;;;;;;;12.38;10.35;;;;;;;22.98;84.89;65411.34;5102338;22;20263;-58
2023/06/28 08:22:07;;;;;;;14.18;10.75;;;;;;;22.48;82.99;65354.50;5072776;28;20204;-60
2023/06/28 08:24:33;;;;;;;11.23;9.32;;;;;;;22.54;85.03;65361.13;5090998;28;20261;-56
2023/06/28 08:26:58;;;;;;;14.05;10.15;;;;;;;22.70;82.83;65375.75;5090625;28;20200;-59
2023/06/28 08:29:24;;;;;;;12.57;9.93;;;;;;;22.88;81.81;65397.69;5090687;28;20242;-56
2023/06/28 08:31:49;;;;;;;13.23;10.68;;;;;;;22.62;82.21;65366.91;5090811;28;20253;-59
2023/06/28 08:34:16;;;;;;;11.32;10.07;;;;;;;22.39;82.26;65343.97;5090723;28;20298;-55
2023/06/28 08:36:42;;;;;;;15.80;10.88;;;;;;;22.51;83.66;65359.84;5090767;28;20230;-55
2023/06/28 08:39:07;;;;;;;11.50;10.40;;;;;;;22.66;83.30;65373.34;5091054;28;20244;-55
2023/06/28 08:41:35;;;;;;;13.40;9.80;;;;;;;23.24;83.58;65437.56;5094391;28;20249;-58
2023/06/28 08:44:04;;;;;;;12.13;9.02;;;;;;;23.31;79.56;65447.91;5094371;28;20253;-57
2023/06/28 08:46:30;;;;;;;13.32;9.80;;;;;;;23.01;77.31;65412.66;5094175;28;20192;-60
2023/06/28 08:48:57;;;;;;;15.32;9.55;;;;;;;23.04;79.66;65415.97;5094073;28;20223;-55
2023/06/28 08:51:23;;;;;;;12.20;9.77;;;;;;;22.97;77.30;65408.22;5094178;28;20229;-60
2023/06/28 08:53:49;;;;;;;14.13;11.23;;;;;;;23.13;77.89;65425.94;5094136;28;20208;-56
2023/06/28 08:56:18;;;;;;;11.18;10.07;;;;;;;23.09;78.33;65418.94;5094003;28;20735;-54
2023/06/28 08:58:48;;;;;;;13.57;10.25;;;;;;;23.33;76.64;65445.00;5076433;28;20211;-58
2023/06/28 09:01:14;;;;;;;11.85;10.63;;;;;;;23.46;75.19;65458.84;5094029;28;20245;-58
2023/06/28 09:03:42;;;;;;;12.18;10.95;;;;;;;23.73;75.87;65491.34;5094102;28;20235;-58
2023/06/28 09:06:09;;;;;;;13.63;10.38;;;;;;;24.26;74.15;65547.53;5094010;28;20731;-59
2023/06/28 09:08:36;;;;;;;11.38;9.93;;;;;;;24.61;72.71;65588.94;5093761;28;20211;-55
2023/06/28 09:11:02;;;;;;;12.85;9.90;;;;;;;24.70;71.47;65596.34;5094132;28;20261;-58
2023/06/28 09:13:29;;;;;;;11.57;10.38;;;;;;;24.57;68.56;65581.91;5093674;28;20208;-56
2023/06/28 09:15:55;;;;;;;11.52;10.32;;;;;;;24.93;71.27;65621.31;5093862;28;20189;-56
2023/06/28 09:18:21;;;;;;;11.27;10.10;;;;;;;24.22;69.00;65545.69;5093352;28;20635;-54
2023/06/28 09:20:52;;;;;;;12.82;11.02;;;;;;;24.01;69.64;65522.38;5093787;28;20203;-58
2023/06/28 09:23:27;;;;;;;11.70;10.00;;;;;;;24.16;68.43;65536.44;5093922;28;20279;-60
2023/06/28 09:25:54;;;;;;;12.95;9.63;;;;;;;24.61;67.81;65588.38;5093686;28;20207;-60
2023/06/28 09:28:23;;;;;;;11.98;10.77;;;;;;;24.87;70.74;65614.66;5093668;28;20231;-60
2023/06/28 09:30:56;;;;;;;14.52;10.43;;;;;;;24.49;69.86;65575.63;5093570;28;20251;-60
2023/06/28 09:33:23;;;;;;;14.32;9.93;;;;;;;24.69;67.19;65597.81;5093632;28;20208;-56
2023/06/28 09:35:55;;;;;;;13.23;9.60;;;;;;;25.03;64.61;65634.44;5093423;28;20689;-57
2023/06/28 09:38:21;;;;;;;8.77;7.97;;;;;;;25.02;65.37;65633.88;5093657;28;20291;-59
2023/06/28 09:40:53;;;;;;;13.20;9.50;;;;;;;25.23;63.02;65657.19;5075362;28;20204;-55
2023/06/28 09:43:19;;;;;;;10.18;9.13;;;;;;;25.09;62.16;65638.53;5093518;28;20212;-57
2023/06/28 09:45:44;;;;;;;10.68;9.55;;;;;;;25.48;62.75;65684.41;5092451;28;20204;-57
2023/06/28 09:48:10;;;;;;;13.70;8.60;;;;;;;25.68;64.66;65707.16;5092509;28;20220;-60
2023/06/28 09:50:42;;;;;;;11.30;9.10;;;;;;;25.54;62.68;65691.06;5091038;28;20212;-58
2023/06/28 09:53:13;;;;;;;9.57;8.68;;;;;;;25.95;61.79;65736.03;5093353;28;20204;-54
2023/06/28 09:55:44;;;;;;;11.35;9.52;;;;;;;26.10;62.13;65750.69;5093293;28;20265;-55
2023/06/28 09:58:14;;;;;;;12.43;9.90;;;;;;;26.26;60.89;65770.50;5093060;28;20212;-58
2023/06/28 10:00:42;;;;;;;13.95;9.48;;;;;;;26.06;64.30;65748.78;5093168;28;20204;-58
2023/06/28 10:03:12;;;;;;;10.65;9.45;;;;;;;26.01;63.21;65742.69;5093345;28;20196;-56
2023/06/28 10:05:41;;;;;;;11.35;8.80;;;;;;;25.02;61.67;65633.88;5092939;28;20200;-60
2023/06/28 10:08:08;;;;;;;10.57;9.38;;;;;;;24.58;64.40;65588.19;5074535;28;20211;-59
2023/06/28 10:10:35;;;;;;;11.10;9.38;;;;;;;24.74;65.19;65602.81;5092893;28;20700;-60
2023/06/28 10:13:08;;;;;;;11.30;9.63;;;;;;;24.51;66.66;65579.84;5092962;28;20234;-59
2023/06/28 10:15:43;;;;;;;12.20;10.73;;;;;;;23.86;67.17;65505.75;5092660;28;20304;-59
2023/06/28 10:18:09;;;;;;;12.25;9.60;;;;;;;24.43;72.22;65566.41;5092804;28;20243;-58
2023/06/28 10:20:37;;;;;;;13.98;10.10;;;;;;;24.69;74.83;65594.66;5092826;28;20584;-61
2023/06/28 10:23:05;;;;;;;12.57;9.70;;;;;;;24.87;72.77;65617.22;5092576;28;20212;-61
2023/06/28 10:25:31;;;;;;;11.60;10.20;;;;;;;24.92;74.12;65623.34;5092581;28;20199;-61
2023/06/28 10:27:57;;;;;;;10.10;8.60;;;;;;;24.84;68.00;65613.91;5092952;28;20200;-60
2023/06/28 10:30:24;;;;;;;10.13;8.90;;;;;;;24.70;65.25;65598.94;5092629;28;20208;-59
2023/06/28 10:32:51;;;;;;;11.23;9.18;;;;;;;24.41;66.89;65564.19;5092981;28;20206;-61
2023/06/28 10:35:17;;;;;;;11.30;8.93;;;;;;;24.16;69.66;65539.59;5091345;28;20204;-62
2023/06/28 10:37:42;;;;;;;10.82;9.50;;;;;;;24.06;70.18;65527.94;5091139;28;20572;-62
2023/06/28 10:40:09;;;;;;;10.85;9.85;;;;;;;24.02;72.68;65524.03;5092505;28;20604;-59
2023/06/28 10:42:40;;;;;;;12.82;9.60;;;;;;;24.16;72.33;65536.44;5092659;28;20204;-59
2023/06/28 10:45:08;;;;;;;11.32;9.43;;;;;;;24.05;70.15;65527.41;5092313;28;20232;-60
2023/06/28 10:47:35;;;;;;;13.20;10.15;;;;;;;23.89;71.77;65509.09;5092203;28;20689;-59
2023/06/28 10:50:10;;;;;;;11.57;10.32;;;;;;;23.97;71.00;65518.50;5092162;28;20226;-60
2023/06/28 10:52:45;;;;;;;12.15;9.15;;;;;;;24.16;68.83;65539.03;5092558;28;20215;-58
2023/06/28 10:55:11;;;;;;;11.70;9.73;;;;;;;24.66;72.99;65593.94;5074261;28;20229;-63
2023/06/28 10:57:41;;;;;;;10.73;9.63;;;;;;;24.22;69.35;65545.13;5074061;28;20199;-60
2023/06/28 11:00:28;;;;;;;14.23;9.85;;;;;;;24.40;69.33;65567.66;5092095;28;20303;-60
2023/06/28 11:02:56;;;;;;;12.00;9.70;;;;;;;24.27;67.89;65551.22;5091305;28;20208;-59
2023/06/28 11:05:51;;;;;;;10.80;9.43;;;;;;;24.97;69.39;65628.34;5092172;28;20188;-60
2023/06/28 11:08:17;;;;;;;10.80;9.70;;;;;;;24.83;66.96;65613.34;5092442;28;20212;-60
2023/06/28 11:10:46;;;;;;;10.73;9.10;;;;;;;24.80;70.29;65610.03;5091952;28;20208;-59
2023/06/28 11:13:14;;;;;;;10.40;8.80;;;;;;;24.72;67.19;65603.72;5092257;28;20683;-60